createdAt,value
2023-05-10T00:00:56.099Z,2.17
2023-05-10T00:03:25.976Z,1.97
2023-05-10T00:05:55.800Z,1.90
2023-05-10T00:08:26.001Z,1.85
2023-05-10T00:10:55.841Z,2.33
2023-05-10T00:13:25.840Z,2.30
2023-05-10T00:15:55.628Z,1.87
2023-05-10T00:18:25.435Z,2.03
2023-05-10T00:20:55.240Z,1.90
2023-05-10T00:23:25.058Z,4.67
2023-05-10T00:25:54.838Z,2.10
2023-05-10T00:28:24.575Z,2.23
2023-05-10T00:30:54.423Z,2.27
2023-05-10T00:33:24.222Z,1.80
2023-05-10T00:35:54.311Z,2.33
2023-05-10T00:38:24.171Z,3.63
2023-05-10T00:40:53.933Z,2.53
2023-05-10T00:43:25.236Z,2.60
2023-05-10T00:45:55.785Z,2.03
2023-05-10T00:48:25.480Z,1.90
2023-05-10T00:50:55.269Z,2.03
2023-05-10T00:53:26.548Z,2.15
2023-05-10T00:55:56.545Z,1.90
2023-05-10T00:58:28.453Z,1.93
2023-05-10T01:00:58.933Z,2.43
2023-05-10T01:03:28.515Z,1.87
2023-05-10T01:05:58.466Z,1.90
2023-05-10T01:08:28.836Z,2.10
2023-05-10T01:10:58.961Z,1.80
2023-05-10T01:13:38.445Z,2.73
2023-05-10T01:16:09.117Z,2.60
2023-05-10T01:18:42.147Z,2.17
2023-05-10T01:21:17.966Z,2.05
2023-05-10T01:24:10.561Z,2.20
2023-05-10T01:26:46.446Z,2.27
2023-05-10T01:29:37.776Z,2.22
2023-05-10T01:32:32.445Z,2.00
2023-05-10T01:35:16.806Z,2.08
2023-05-10T01:38:10.858Z,2.40
2023-05-10T01:40:43.702Z,2.47
2023-05-10T01:43:16.873Z,2.57
2023-05-10T01:46:06.989Z,2.07
2023-05-10T01:48:36.864Z,2.17
2023-05-10T01:51:08.321Z,2.40
2023-05-10T01:53:40.866Z,2.53
2023-05-10T01:56:13.474Z,2.08
2023-05-10T02:01:14.215Z,2.20
2023-05-10T02:03:45.830Z,2.57
2023-05-10T02:06:18.579Z,2.27
2023-05-10T02:08:51.535Z,2.20
2023-05-10T02:11:23.254Z,2.47
2023-05-10T02:13:55.806Z,4.33
2023-05-10T02:16:31.138Z,2.67
2023-05-10T02:19:04.208Z,2.13
2023-05-10T02:21:35.497Z,2.03
2023-05-10T02:24:07.422Z,2.96
2023-05-10T02:26:38.164Z,2.83
2023-05-10T02:29:08.922Z,2.17
2023-05-10T02:31:39.957Z,2.33
2023-05-10T02:34:11.954Z,2.67
2023-05-10T02:36:43.627Z,3.00
2023-05-10T02:39:15.160Z,2.00
2023-05-10T02:41:47.201Z,1.87
2023-05-10T02:44:19.335Z,2.50
2023-05-10T02:46:49.678Z,2.27
2023-05-10T02:49:19.917Z,2.43
2023-05-10T02:51:53.352Z,2.17
2023-05-10T02:54:26.607Z,2.40
2023-05-10T02:57:01.267Z,2.43
2023-05-10T02:59:31.105Z,3.13
2023-05-10T03:02:02.953Z,3.40
2023-05-10T03:07:01.571Z,2.25
2023-05-10T03:09:32.221Z,3.87
2023-05-10T03:12:36.271Z,3.77
2023-05-10T03:15:10.110Z,2.58
2023-05-10T03:17:55.342Z,2.53
2023-05-10T03:20:28.129Z,3.10
2023-05-10T03:23:03.917Z,2.73
2023-05-10T03:25:34.384Z,3.43
2023-05-10T03:28:06.462Z,2.67
2023-05-10T03:30:37.527Z,2.70
2023-05-10T03:33:08.391Z,2.10
2023-05-10T03:35:40.017Z,2.10
2023-05-10T03:38:09.933Z,3.00
2023-05-10T03:40:39.842Z,2.77
2023-05-10T03:43:10.258Z,2.63
2023-05-10T03:45:39.906Z,2.77
2023-05-10T03:48:09.662Z,2.87
2023-05-10T03:50:39.524Z,2.83
2023-05-10T03:53:09.161Z,3.23
2023-05-10T03:55:38.974Z,2.93
2023-05-10T03:58:10.573Z,4.00
2023-05-10T04:03:11.599Z,2.63
2023-05-10T04:05:41.603Z,2.83
2023-05-10T04:08:11.561Z,2.83
2023-05-10T04:10:41.463Z,2.83
2023-05-10T04:13:11.100Z,2.87
2023-05-10T04:15:41.044Z,3.17
2023-05-10T04:18:11.099Z,2.05
2023-05-10T04:20:40.988Z,3.17
2023-05-10T04:23:10.635Z,3.27
2023-05-10T04:25:40.452Z,3.17
2023-05-10T04:28:10.117Z,3.33
2023-05-10T04:30:40.025Z,2.77
2023-05-10T04:33:09.602Z,3.17
2023-05-10T04:35:41.123Z,3.20
2023-05-10T04:38:11.113Z,2.50
2023-05-10T04:40:41.130Z,2.50
2023-05-10T04:43:10.608Z,2.20
2023-05-10T04:45:40.422Z,2.60
2023-05-10T04:48:10.405Z,2.93
2023-05-10T04:50:41.170Z,2.93
2023-05-10T04:53:10.669Z,1.97
2023-05-10T04:55:40.495Z,2.90
2023-05-10T04:58:10.203Z,2.93
2023-05-10T05:00:40.087Z,2.60
2023-05-10T05:03:09.839Z,2.50
2023-05-10T05:05:39.892Z,2.70
2023-05-10T05:08:09.868Z,3.37
2023-05-10T05:10:39.660Z,2.93
2023-05-10T05:13:09.553Z,2.80
2023-05-10T05:15:39.485Z,3.10
2023-05-10T05:18:09.057Z,5.47
2023-05-10T05:20:38.916Z,2.00
2023-05-10T05:23:08.727Z,1.97
2023-05-10T05:25:38.619Z,2.50
2023-05-10T05:28:08.508Z,1.80
2023-05-10T05:30:38.321Z,2.30
2023-05-10T05:33:08.184Z,2.50
2023-05-10T05:35:38.007Z,2.73
2023-05-10T05:38:07.726Z,2.80
2023-05-10T05:40:37.838Z,2.53
2023-05-10T05:43:07.665Z,2.87
2023-05-10T05:45:37.490Z,2.63
2023-05-10T05:48:07.372Z,2.20
2023-05-10T05:50:37.209Z,2.80
2023-05-10T05:53:07.209Z,1.83
2023-05-10T05:55:37.015Z,2.30
2023-05-10T05:58:07.012Z,3.20
2023-05-10T06:00:36.971Z,2.23
2023-05-10T06:03:07.303Z,2.60
2023-05-10T06:05:37.170Z,2.10
2023-05-10T06:08:07.005Z,2.17
2023-05-10T06:10:36.890Z,2.30
2023-05-10T06:13:06.869Z,2.20
2023-05-10T06:15:36.792Z,2.57
2023-05-10T06:18:07.028Z,2.50
2023-05-10T06:20:36.632Z,2.63
2023-05-10T06:23:06.684Z,2.10
2023-05-10T06:25:36.474Z,2.27
2023-05-10T06:28:06.303Z,2.60
2023-05-10T06:30:37.661Z,1.33
2023-05-10T06:33:07.478Z,3.03
2023-05-10T06:35:37.668Z,2.90
2023-05-10T06:38:07.307Z,2.17
2023-05-10T06:40:37.373Z,2.30
2023-05-10T06:43:07.362Z,2.30
2023-05-10T06:45:37.234Z,3.70
2023-05-10T06:48:07.300Z,1.90
2023-05-10T06:50:37.211Z,2.93
2023-05-10T06:53:07.000Z,1.77
2023-05-10T06:55:36.877Z,1.90
2023-05-10T06:58:07.124Z,2.93
2023-05-10T07:00:38.669Z,1.70
2023-05-10T07:03:08.720Z,2.03
2023-05-10T07:05:38.736Z,2.07
2023-05-10T07:08:09.431Z,1.77
2023-05-10T07:10:38.971Z,2.53
2023-05-10T07:13:08.846Z,2.67
2023-05-10T07:15:38.895Z,1.80
2023-05-10T07:18:08.849Z,1.90
2023-05-10T07:20:38.786Z,1.43
2023-05-10T07:23:08.340Z,1.40
2023-05-10T07:25:38.722Z,1.97
2023-05-10T07:28:08.547Z,1.47
2023-05-10T07:30:38.387Z,1.93
2023-05-10T07:33:09.526Z,1.90
2023-05-10T07:35:39.975Z,1.97
2023-05-10T07:38:11.546Z,1.50
2023-05-10T07:40:41.859Z,1.15
2023-05-10T07:43:11.425Z,2.13
2023-05-10T07:45:41.326Z,1.40
2023-05-10T07:48:10.922Z,1.50
2023-05-10T07:50:40.717Z,2.40
2023-05-10T07:53:10.323Z,1.53
2023-05-10T07:55:40.557Z,1.60
2023-05-10T07:58:10.436Z,1.30
2023-05-10T08:00:41.345Z,1.60
2023-05-10T08:03:11.146Z,1.53
2023-05-10T08:05:41.478Z,1.37
2023-05-10T08:08:11.241Z,1.20
2023-05-10T08:10:41.058Z,1.60
2023-05-10T08:13:11.077Z,2.40
2023-05-10T08:15:40.949Z,1.40
2023-05-10T08:18:10.897Z,1.00
2023-05-10T08:20:40.619Z,1.60
2023-05-10T08:23:10.413Z,2.87
2023-05-10T08:25:41.172Z,1.80
2023-05-10T08:28:11.930Z,2.42
2023-05-10T08:30:41.956Z,1.07
2023-05-10T08:33:11.756Z,1.10
2023-05-10T08:35:42.260Z,2.83
2023-05-10T08:38:13.688Z,1.10
2023-05-10T08:40:45.435Z,1.05
2023-05-10T08:43:17.141Z,1.10
2023-05-10T08:45:48.129Z,1.27
2023-05-10T08:48:19.636Z,0.93
2023-05-10T08:50:50.494Z,1.40
2023-05-10T08:53:22.042Z,0.85
2023-05-10T08:55:52.516Z,1.30
2023-05-10T08:58:22.614Z,1.00
2023-05-10T09:00:52.550Z,0.90
2023-05-10T09:03:22.531Z,0.80
2023-05-10T09:05:52.505Z,0.90
2023-05-10T09:08:22.703Z,0.80
2023-05-10T09:10:52.618Z,1.03
2023-05-10T09:13:24.183Z,0.93
2023-05-10T09:15:54.964Z,0.57
2023-05-10T09:18:27.318Z,0.78
2023-05-10T09:20:56.980Z,0.60
2023-05-10T09:23:28.745Z,1.12
2023-05-10T09:26:06.251Z,1.05
2023-05-10T09:28:38.023Z,1.63
2023-05-10T09:31:07.579Z,1.47
2023-05-10T09:33:40.940Z,0.70
2023-05-10T09:36:10.941Z,1.07
2023-05-10T09:38:52.796Z,1.60
2023-05-10T09:41:26.006Z,0.80
2023-05-10T09:43:57.756Z,2.00
2023-05-10T09:46:27.440Z,2.70
2023-05-10T09:48:57.134Z,2.13
2023-05-10T09:51:27.926Z,0.70
2023-05-10T09:54:15.845Z,0.85
2023-05-10T09:56:45.833Z,1.37
2023-05-10T09:59:15.600Z,0.80
2023-05-10T10:01:53.703Z,0.47
2023-05-10T10:04:23.624Z,0.93
2023-05-10T10:07:05.393Z,1.90
2023-05-10T10:09:36.654Z,0.90
2023-05-10T10:12:08.227Z,1.20
2023-05-10T10:14:38.247Z,0.97
2023-05-10T10:17:09.423Z,1.50
2023-05-10T10:19:39.303Z,2.37
2023-05-10T10:22:08.899Z,0.70
2023-05-10T10:24:39.834Z,1.27
2023-05-10T10:27:27.439Z,0.90
2023-05-10T10:30:18.557Z,0.90
2023-05-10T10:32:57.295Z,0.78
2023-05-10T10:35:27.459Z,1.07
2023-05-10T10:37:57.513Z,0.57
2023-05-10T10:40:35.328Z,2.23
2023-05-10T10:43:25.138Z,1.73
2023-05-10T10:46:15.660Z,0.80
2023-05-10T10:48:54.023Z,0.50
2023-05-10T10:51:23.891Z,0.90
2023-05-10T10:53:53.704Z,0.90
2023-05-10T10:56:25.275Z,0.73
2023-05-10T11:01:24.874Z,0.60
2023-05-10T11:04:00.666Z,0.90
2023-05-10T11:06:35.164Z,0.68
2023-05-10T11:09:13.458Z,0.87
2023-05-10T11:11:56.673Z,1.07
2023-05-10T11:14:27.301Z,0.97
2023-05-10T11:16:57.285Z,0.70
2023-05-10T11:19:31.550Z,1.33
2023-05-10T11:22:10.690Z,0.50
2023-05-10T11:24:40.563Z,1.00
2023-05-10T11:27:10.622Z,0.60
2023-05-10T11:29:40.254Z,0.93
2023-05-10T11:32:10.698Z,0.70
2023-05-10T11:34:41.185Z,1.50
2023-05-10T11:37:11.002Z,1.00
2023-05-10T11:39:41.459Z,1.77
2023-05-10T11:42:12.232Z,0.63
2023-05-10T11:44:42.899Z,1.17
2023-05-10T11:47:14.705Z,0.60
2023-05-10T11:49:48.152Z,0.80
2023-05-10T11:52:17.729Z,0.53
2023-05-10T11:54:56.233Z,1.47
2023-05-10T11:57:29.555Z,0.70
2023-05-10T12:00:00.176Z,0.50
2023-05-10T12:04:59.308Z,0.78
2023-05-10T12:07:29.516Z,0.50
2023-05-10T12:10:19.215Z,0.50
2023-05-10T12:12:49.734Z,0.50
2023-05-10T12:15:26.720Z,0.40
2023-05-10T12:17:57.356Z,1.33
2023-05-10T12:20:29.785Z,0.65
2023-05-10T12:23:02.284Z,0.50
2023-05-10T12:25:34.669Z,1.27
2023-05-10T12:28:09.448Z,0.83
2023-05-10T12:30:40.375Z,0.70
2023-05-10T12:33:12.865Z,0.90
2023-05-10T12:35:51.450Z,0.77
2023-05-10T12:38:32.755Z,0.40
2023-05-10T12:43:32.264Z,1.00
2023-05-10T12:46:06.961Z,2.20
2023-05-10T12:48:38.445Z,0.77
2023-05-10T12:51:13.647Z,0.50
2023-05-10T12:53:46.057Z,0.60
2023-05-10T12:56:15.368Z,0.67
2023-05-10T12:58:46.837Z,0.50
2023-05-10T13:01:17.314Z,1.93
2023-05-10T13:03:46.884Z,5.13
2023-05-10T13:06:16.575Z,0.80
2023-05-10T13:08:46.410Z,0.60
2023-05-10T13:11:20.691Z,2.05
2023-05-10T13:13:50.664Z,1.03
2023-05-10T13:16:20.594Z,0.55
2023-05-10T13:18:50.318Z,0.40
2023-05-10T13:21:20.159Z,1.85
2023-05-10T13:23:50.033Z,1.77
2023-05-10T13:26:19.631Z,0.80
2023-05-10T13:28:50.546Z,0.50
2023-05-10T13:31:20.469Z,0.40
2023-05-10T13:33:50.389Z,0.60
2023-05-10T13:36:20.235Z,0.55
2023-05-10T13:38:50.039Z,1.33
2023-05-10T13:41:19.928Z,0.43
2023-05-10T13:43:50.362Z,1.50
2023-05-10T13:46:20.615Z,0.40
2023-05-10T13:48:50.346Z,0.67
2023-05-10T13:51:19.912Z,0.50
2023-05-10T13:53:49.980Z,0.60
2023-05-10T13:56:19.519Z,0.50
2023-05-10T13:58:49.387Z,0.60
2023-05-10T14:01:18.922Z,0.40
2023-05-10T14:03:49.160Z,0.67
2023-05-10T14:06:18.943Z,0.50
2023-05-10T14:08:48.810Z,0.40
2023-05-10T14:11:18.627Z,0.60
2023-05-10T14:13:48.764Z,0.88
2023-05-10T14:16:18.904Z,1.13
2023-05-10T14:18:49.167Z,0.60
2023-05-10T14:21:19.073Z,0.37
2023-05-10T14:23:48.913Z,0.67
2023-05-10T14:26:18.562Z,1.70
2023-05-10T14:28:48.464Z,0.53
2023-05-10T14:31:19.845Z,0.53
2023-05-10T14:33:49.821Z,0.40
2023-05-10T14:36:20.143Z,0.60
2023-05-10T14:38:49.770Z,0.30
2023-05-10T14:41:19.662Z,0.60
2023-05-10T14:43:49.784Z,2.37
2023-05-10T14:46:19.935Z,0.47
2023-05-10T14:48:50.144Z,0.40
2023-05-10T14:51:22.021Z,0.43
2023-05-10T14:53:51.942Z,1.13
2023-05-10T14:56:22.530Z,0.57
2023-05-10T14:58:52.670Z,1.47
2023-05-10T15:01:22.978Z,0.60
2023-05-10T15:03:53.350Z,0.40
2023-05-10T15:08:56.912Z,0.75
2023-05-10T15:11:27.009Z,0.50
2023-05-10T15:13:56.850Z,0.70
2023-05-10T15:16:26.646Z,0.20
2023-05-10T15:18:56.772Z,0.30
2023-05-10T15:21:26.534Z,0.43
2023-05-10T15:23:56.456Z,1.40
2023-05-10T15:26:27.269Z,0.43
2023-05-10T15:28:57.284Z,0.50
2023-05-10T15:31:28.121Z,0.60
2023-05-10T15:36:30.291Z,0.80
2023-05-10T15:39:00.155Z,0.60
2023-05-10T15:41:29.959Z,3.70
2023-05-10T15:44:03.462Z,1.65
2023-05-10T15:46:33.387Z,0.40
2023-05-10T15:49:03.613Z,0.30
2023-05-10T15:51:36.610Z,1.13
2023-05-10T15:54:08.446Z,0.67
2023-05-10T15:56:39.466Z,0.73
2023-05-10T15:59:10.629Z,1.30
2023-05-10T16:01:40.377Z,0.40
2023-05-10T16:04:10.194Z,0.90
2023-05-10T16:06:39.935Z,0.40
2023-05-10T16:09:10.770Z,0.37
2023-05-10T16:14:09.321Z,0.40
2023-05-10T16:16:39.183Z,0.60
2023-05-10T16:19:08.864Z,0.30
2023-05-10T16:21:38.563Z,0.73
2023-05-10T16:24:08.608Z,0.77
2023-05-10T16:26:39.811Z,0.50
2023-05-10T16:29:10.153Z,2.90
2023-05-10T16:31:39.957Z,0.68
2023-05-10T16:34:09.588Z,1.40
2023-05-10T16:36:40.327Z,0.60
2023-05-10T16:39:10.269Z,0.60
2023-05-10T16:41:40.140Z,2.37
2023-05-10T16:44:09.835Z,0.50
2023-05-10T16:46:39.743Z,0.50
2023-05-10T16:49:09.896Z,0.40
2023-05-10T16:51:39.470Z,0.50
2023-05-10T16:54:09.011Z,1.20
2023-05-10T16:56:38.900Z,0.63
2023-05-10T16:59:08.624Z,0.30
2023-05-10T17:01:38.439Z,0.43
2023-05-10T17:04:08.336Z,0.43
2023-05-10T17:06:38.596Z,0.43
2023-05-10T17:09:08.431Z,0.63
2023-05-10T17:11:38.215Z,0.40
2023-05-10T17:14:08.039Z,1.27
2023-05-10T17:16:37.892Z,0.63
2023-05-10T17:19:07.561Z,0.50
2023-05-10T17:21:37.418Z,0.57
2023-05-10T17:24:07.333Z,0.50
2023-05-10T17:26:37.667Z,0.63
2023-05-10T17:29:07.240Z,0.40
2023-05-10T17:31:37.448Z,0.42
2023-05-10T17:34:07.197Z,0.77
2023-05-10T17:36:36.833Z,0.73
2023-05-10T17:39:06.934Z,0.57
2023-05-10T17:41:36.741Z,0.30
2023-05-10T17:44:06.423Z,0.60
2023-05-10T17:46:36.870Z,0.60
2023-05-10T17:49:07.161Z,1.10
2023-05-10T17:51:37.042Z,0.60
2023-05-10T17:54:06.934Z,1.13
2023-05-10T17:56:36.762Z,1.00
2023-05-10T17:59:06.993Z,0.90
2023-05-10T18:01:36.964Z,0.50
2023-05-10T18:04:06.873Z,0.97
2023-05-10T18:06:40.712Z,0.60
2023-05-10T18:09:10.470Z,0.50
2023-05-10T18:11:40.327Z,0.50
2023-05-10T18:14:10.216Z,1.40
2023-05-10T18:16:40.024Z,0.50
2023-05-10T18:19:11.017Z,0.77
2023-05-10T18:24:10.229Z,0.93
2023-05-10T18:26:40.072Z,1.10
2023-05-10T18:29:09.867Z,0.60
2023-05-10T18:31:40.109Z,0.80
2023-05-10T18:34:09.947Z,1.17
2023-05-10T18:36:42.648Z,0.90
2023-05-10T18:39:13.274Z,0.80
2023-05-10T18:41:44.438Z,0.95
2023-05-10T18:44:14.540Z,1.45
2023-05-10T18:46:44.381Z,1.83
2023-05-10T18:49:14.185Z,1.33
2023-05-10T18:51:44.263Z,1.30
2023-05-10T18:54:13.798Z,1.63
2023-05-10T18:56:45.172Z,3.63
2023-05-10T18:59:15.553Z,1.33
2023-05-10T19:01:45.094Z,1.87
2023-05-10T19:04:15.025Z,1.40
2023-05-10T19:06:44.797Z,2.07
2023-05-10T19:09:14.609Z,1.57
2023-05-10T19:11:44.420Z,1.40
2023-05-10T19:14:14.245Z,1.45
2023-05-10T19:16:44.365Z,1.57
2023-05-10T19:19:15.081Z,1.70
2023-05-10T19:21:45.886Z,1.70
2023-05-10T19:24:16.080Z,1.62
2023-05-10T19:26:46.917Z,1.13
2023-05-10T19:31:46.628Z,1.30
2023-05-10T19:34:16.960Z,1.97
2023-05-10T19:36:46.811Z,1.60
2023-05-10T19:39:16.691Z,1.60
2023-05-10T19:41:48.132Z,1.90
2023-05-10T19:44:18.045Z,1.53
2023-05-10T19:46:47.970Z,1.60
2023-05-10T19:49:18.892Z,1.47
2023-05-10T19:51:48.989Z,2.37
2023-05-10T19:54:18.797Z,1.80
2023-05-10T19:56:48.619Z,1.67
2023-05-10T19:59:18.586Z,1.27
2023-05-10T20:01:48.227Z,2.00
2023-05-10T20:04:18.052Z,1.30
2023-05-10T20:06:47.861Z,1.60
2023-05-10T20:09:17.524Z,1.07
2023-05-10T20:11:47.334Z,1.33
2023-05-10T20:14:17.096Z,1.93
2023-05-10T20:16:46.934Z,2.40
2023-05-10T20:19:17.367Z,1.47
2023-05-10T20:21:47.506Z,2.30
2023-05-10T20:24:17.102Z,1.60
2023-05-10T20:26:46.921Z,1.80
2023-05-10T20:29:16.731Z,1.65
2023-05-10T20:31:46.637Z,1.93
2023-05-10T20:34:16.435Z,2.55
2023-05-10T20:36:47.331Z,2.17
2023-05-10T20:39:17.271Z,1.70
2023-05-10T20:41:47.375Z,2.20
2023-05-10T20:44:17.248Z,2.20
2023-05-10T20:46:47.275Z,2.43
2023-05-10T20:49:17.712Z,2.00
2023-05-10T20:51:47.827Z,2.45
2023-05-10T20:54:17.543Z,1.77
2023-05-10T20:56:47.906Z,2.03
2023-05-10T20:59:18.173Z,2.67
2023-05-10T21:01:47.719Z,2.37
2023-05-10T21:04:17.399Z,3.00
2023-05-10T21:06:47.450Z,3.10
2023-05-10T21:09:17.546Z,2.20
2023-05-10T21:11:47.837Z,2.10
2023-05-10T21:14:17.354Z,4.07
2023-05-10T21:16:47.161Z,2.50
2023-05-10T21:19:17.138Z,2.73
2023-05-10T21:21:46.948Z,2.67
2023-05-10T21:24:17.087Z,2.10
2023-05-10T21:26:47.468Z,2.33
2023-05-10T21:29:17.141Z,2.07
2023-05-10T21:31:46.986Z,1.90
2023-05-10T21:34:17.932Z,3.63
2023-05-10T21:36:47.731Z,3.05
2023-05-10T21:39:17.356Z,2.63
2023-05-10T21:41:47.205Z,2.43
2023-05-10T21:44:16.998Z,2.27
2023-05-10T21:46:46.813Z,2.17
2023-05-10T21:49:16.539Z,1.80
2023-05-10T21:51:46.330Z,1.90
2023-05-10T21:54:16.124Z,2.50
2023-05-10T21:56:45.914Z,2.10
2023-05-10T21:59:15.754Z,2.30
2023-05-10T22:01:45.772Z,2.30
2023-05-10T22:04:15.423Z,2.10
2023-05-10T22:06:45.286Z,2.07
2023-05-10T22:09:14.840Z,2.23
2023-05-10T22:11:44.640Z,2.33
2023-05-10T22:14:14.489Z,2.27
2023-05-10T22:16:44.314Z,2.40
2023-05-10T22:19:14.251Z,1.80
2023-05-10T22:21:44.035Z,2.33
2023-05-10T22:24:13.718Z,1.67
2023-05-10T22:26:43.538Z,2.00
2023-05-10T22:29:13.053Z,2.20
2023-05-10T22:31:42.918Z,2.13
2023-05-10T22:34:12.526Z,1.30
2023-05-10T22:36:42.605Z,2.07
2023-05-10T22:39:12.705Z,1.80
2023-05-10T22:41:42.344Z,1.63
2023-05-10T22:44:12.366Z,2.37
2023-05-10T22:46:42.673Z,2.00
2023-05-10T22:49:12.568Z,1.80
2023-05-10T22:51:42.413Z,2.60
2023-05-10T22:54:12.220Z,2.08
2023-05-10T22:56:42.591Z,2.27
2023-05-10T22:59:12.241Z,2.30
2023-05-10T23:01:41.957Z,2.03
2023-05-10T23:04:12.411Z,1.40
2023-05-10T23:06:42.267Z,1.60
2023-05-10T23:09:11.952Z,1.73
2023-05-10T23:11:41.953Z,1.43
2023-05-10T23:14:11.899Z,1.90
2023-05-10T23:16:41.662Z,1.43
2023-05-10T23:19:11.508Z,1.90
2023-05-10T23:21:41.322Z,2.17
2023-05-10T23:24:12.156Z,2.03
2023-05-10T23:29:10.614Z,1.80
2023-05-10T23:31:42.220Z,2.20
2023-05-10T23:34:12.637Z,1.82
2023-05-10T23:36:42.261Z,2.10
2023-05-10T23:39:12.522Z,1.73
2023-05-10T23:41:42.606Z,1.70
2023-05-10T23:44:12.508Z,2.37
2023-05-10T23:46:42.313Z,1.57
2023-05-10T23:49:12.141Z,1.87
2023-05-10T23:51:41.994Z,1.53
2023-05-10T23:54:12.336Z,1.98
2023-05-10T23:56:42.114Z,1.83
2023-05-10T23:59:11.649Z,1.50
